sensor_id;sensor_type;location;lat;lon;timestamp;P1;durP1;ratioP1;P2;durP2;ratioP2
5147;SDS011;2592;48.140;7.614;2023-03-05T00:01:03;100.97;;;57.03;;
5147;SDS011;2592;48.140;7.614;2023-03-05T00:03:29;96.03;;;52.17;;
5147;SDS011;2592;48.140;7.614;2023-03-05T00:05:55;104.90;;;53.17;;
5147;SDS011;2592;48.140;7.614;2023-03-05T00:08:24;178.60;;;79.90;;
5147;SDS011;2592;48.140;7.614;2023-03-05T00:10:54;66.20;;;39.17;;
5147;SDS011;2592;48.140;7.614;2023-03-05T00:13:20;70.27;;;36.63;;
5147;SDS011;2592;48.140;7.614;2023-03-05T00:15:47;60.47;;;35.03;;
5147;SDS011;2592;48.140;7.614;2023-03-05T00:18:13;60.30;;;36.00;;
5147;SDS011;2592;48.140;7.614;2023-03-05T00:20:39;62.90;;;36.30;;
5147;SDS011;2592;48.140;7.614;2023-03-05T00:23:06;65.40;;;35.80;;
5147;SDS011;2592;48.140;7.614;2023-03-05T00:25:34;63.87;;;37.90;;
5147;SDS011;2592;48.140;7.614;2023-03-05T00:28:01;59.40;;;34.60;;
5147;SDS011;2592;48.140;7.614;2023-03-05T00:30:27;66.43;;;38.27;;
5147;SDS011;2592;48.140;7.614;2023-03-05T00:32:54;63.50;;;39.10;;
5147;SDS011;2592;48.140;7.614;2023-03-05T00:35:20;71.13;;;37.13;;
5147;SDS011;2592;48.140;7.614;2023-03-05T00:37:46;66.03;;;36.70;;
5147;SDS011;2592;48.140;7.614;2023-03-05T00:40:13;68.07;;;37.83;;
5147;SDS011;2592;48.140;7.614;2023-03-05T00:42:41;60.80;;;35.23;;
5147;SDS011;2592;48.140;7.614;2023-03-05T00:45:07;61.93;;;34.03;;
5147;SDS011;2592;48.140;7.614;2023-03-05T00:47:34;59.97;;;34.40;;
5147;SDS011;2592;48.140;7.614;2023-03-05T00:50:01;56.90;;;31.30;;
5147;SDS011;2592;48.140;7.614;2023-03-05T00:52:27;61.10;;;31.10;;
5147;SDS011;2592;48.140;7.614;2023-03-05T00:54:54;60.73;;;30.33;;
5147;SDS011;2592;48.140;7.614;2023-03-05T00:57:20;52.67;;;31.37;;
5147;SDS011;2592;48.140;7.614;2023-03-05T00:59:48;64.60;;;36.63;;
5147;SDS011;2592;48.140;7.614;2023-03-05T01:02:14;56.10;;;34.20;;
5147;SDS011;2592;48.140;7.614;2023-03-05T01:04:41;62.47;;;33.30;;
5147;SDS011;2592;48.140;7.614;2023-03-05T01:07:11;56.93;;;33.50;;
5147;SDS011;2592;48.140;7.614;2023-03-05T01:09:37;61.00;;;35.47;;
5147;SDS011;2592;48.140;7.614;2023-03-05T01:12:04;60.50;;;35.50;;
5147;SDS011;2592;48.140;7.614;2023-03-05T01:14:30;62.60;;;35.67;;
5147;SDS011;2592;48.140;7.614;2023-03-05T01:16:58;56.23;;;32.93;;
5147;SDS011;2592;48.140;7.614;2023-03-05T01:19:24;60.50;;;35.53;;
5147;SDS011;2592;48.140;7.614;2023-03-05T01:21:50;66.53;;;34.30;;
5147;SDS011;2592;48.140;7.614;2023-03-05T01:24:19;50.50;;;31.60;;
5147;SDS011;2592;48.140;7.614;2023-03-05T01:26:45;60.40;;;32.23;;
5147;SDS011;2592;48.140;7.614;2023-03-05T01:29:11;58.77;;;32.43;;
5147;SDS011;2592;48.140;7.614;2023-03-05T01:31:38;64.47;;;32.30;;
5147;SDS011;2592;48.140;7.614;2023-03-05T01:34:06;56.83;;;31.90;;
5147;SDS011;2592;48.140;7.614;2023-03-05T01:36:33;58.23;;;32.47;;
5147;SDS011;2592;48.140;7.614;2023-03-05T01:38:59;52.80;;;31.27;;
5147;SDS011;2592;48.140;7.614;2023-03-05T01:41:26;58.00;;;33.40;;
5147;SDS011;2592;48.140;7.614;2023-03-05T01:43:53;58.97;;;33.40;;
5147;SDS011;2592;48.140;7.614;2023-03-05T01:46:23;60.33;;;32.70;;
5147;SDS011;2592;48.140;7.614;2023-03-05T01:48:51;56.20;;;33.00;;
5147;SDS011;2592;48.140;7.614;2023-03-05T01:51:19;69.43;;;37.73;;
5147;SDS011;2592;48.140;7.614;2023-03-05T01:53:47;74.93;;;39.33;;
5147;SDS011;2592;48.140;7.614;2023-03-05T01:56:14;88.00;;;42.63;;
5147;SDS011;2592;48.140;7.614;2023-03-05T01:58:40;68.83;;;37.90;;
5147;SDS011;2592;48.140;7.614;2023-03-05T02:01:07;55.60;;;31.60;;
5147;SDS011;2592;48.140;7.614;2023-03-05T02:03:34;59.10;;;33.57;;
5147;SDS011;2592;48.140;7.614;2023-03-05T02:06:01;57.73;;;34.40;;
5147;SDS011;2592;48.140;7.614;2023-03-05T02:08:29;62.63;;;35.33;;
5147;SDS011;2592;48.140;7.614;2023-03-05T02:10:56;67.10;;;33.27;;
5147;SDS011;2592;48.140;7.614;2023-03-05T02:13:22;58.97;;;31.47;;
5147;SDS011;2592;48.140;7.614;2023-03-05T02:15:49;57.30;;;33.90;;
5147;SDS011;2592;48.140;7.614;2023-03-05T02:18:16;61.97;;;33.47;;
5147;SDS011;2592;48.140;7.614;2023-03-05T02:20:44;59.47;;;33.43;;
5147;SDS011;2592;48.140;7.614;2023-03-05T02:23:12;66.23;;;33.00;;
5147;SDS011;2592;48.140;7.614;2023-03-05T02:25:39;64.50;;;34.23;;
5147;SDS011;2592;48.140;7.614;2023-03-05T02:28:06;54.23;;;31.37;;
5147;SDS011;2592;48.140;7.614;2023-03-05T02:30:33;58.50;;;33.60;;
5147;SDS011;2592;48.140;7.614;2023-03-05T02:33:01;59.80;;;33.50;;
5147;SDS011;2592;48.140;7.614;2023-03-05T02:35:28;55.73;;;32.73;;
5147;SDS011;2592;48.140;7.614;2023-03-05T02:37:54;54.03;;;30.63;;
5147;SDS011;2592;48.140;7.614;2023-03-05T02:40:22;56.23;;;33.10;;
5147;SDS011;2592;48.140;7.614;2023-03-05T02:42:48;59.83;;;33.73;;
5147;SDS011;2592;48.140;7.614;2023-03-05T02:45:15;57.00;;;32.33;;
5147;SDS011;2592;48.140;7.614;2023-03-05T02:47:41;50.53;;;29.77;;
5147;SDS011;2592;48.140;7.614;2023-03-05T02:50:09;54.27;;;28.93;;
5147;SDS011;2592;48.140;7.614;2023-03-05T02:52:35;53.50;;;31.50;;
5147;SDS011;2592;48.140;7.614;2023-03-05T02:55:02;53.37;;;31.07;;
5147;SDS011;2592;48.140;7.614;2023-03-05T02:57:29;54.53;;;31.57;;
5147;SDS011;2592;48.140;7.614;2023-03-05T02:59:56;56.00;;;28.70;;
5147;SDS011;2592;48.140;7.614;2023-03-05T03:02:22;55.43;;;31.00;;
5147;SDS011;2592;48.140;7.614;2023-03-05T03:04:49;50.13;;;29.60;;
5147;SDS011;2592;48.140;7.614;2023-03-05T03:07:15;53.97;;;29.90;;
5147;SDS011;2592;48.140;7.614;2023-03-05T03:09:41;50.13;;;30.77;;
5147;SDS011;2592;48.140;7.614;2023-03-05T03:12:08;53.10;;;29.83;;
5147;SDS011;2592;48.140;7.614;2023-03-05T03:14:37;53.43;;;31.37;;
5147;SDS011;2592;48.140;7.614;2023-03-05T03:17:03;56.20;;;33.17;;
5147;SDS011;2592;48.140;7.614;2023-03-05T03:19:30;53.37;;;31.10;;
5147;SDS011;2592;48.140;7.614;2023-03-05T03:21:56;52.30;;;30.30;;
5147;SDS011;2592;48.140;7.614;2023-03-05T03:24:23;63.17;;;34.20;;
5147;SDS011;2592;48.140;7.614;2023-03-05T03:26:49;61.57;;;34.90;;
5147;SDS011;2592;48.140;7.614;2023-03-05T03:29:15;54.40;;;32.77;;
5147;SDS011;2592;48.140;7.614;2023-03-05T03:31:43;53.13;;;31.23;;
5147;SDS011;2592;48.140;7.614;2023-03-05T03:34:10;50.53;;;31.00;;
5147;SDS011;2592;48.140;7.614;2023-03-05T03:36:36;51.53;;;30.43;;
5147;SDS011;2592;48.140;7.614;2023-03-05T03:39:03;52.40;;;31.70;;
5147;SDS011;2592;48.140;7.614;2023-03-05T03:41:30;55.37;;;31.77;;
5147;SDS011;2592;48.140;7.614;2023-03-05T03:43:56;52.37;;;30.67;;
5147;SDS011;2592;48.140;7.614;2023-03-05T03:46:23;52.00;;;30.43;;
5147;SDS011;2592;48.140;7.614;2023-03-05T03:48:51;56.57;;;31.70;;
5147;SDS011;2592;48.140;7.614;2023-03-05T03:51:17;55.20;;;31.00;;
5147;SDS011;2592;48.140;7.614;2023-03-05T03:53:43;54.17;;;32.33;;
5147;SDS011;2592;48.140;7.614;2023-03-05T03:56:10;59.93;;;33.20;;
5147;SDS011;2592;48.140;7.614;2023-03-05T03:58:36;55.73;;;30.67;;
5147;SDS011;2592;48.140;7.614;2023-03-05T04:01:03;51.03;;;31.13;;
5147;SDS011;2592;48.140;7.614;2023-03-05T04:03:29;52.20;;;29.57;;
5147;SDS011;2592;48.140;7.614;2023-03-05T04:05:57;60.23;;;30.60;;
5147;SDS011;2592;48.140;7.614;2023-03-05T04:08:23;56.30;;;31.23;;
5147;SDS011;2592;48.140;7.614;2023-03-05T04:10:50;53.37;;;29.97;;
5147;SDS011;2592;48.140;7.614;2023-03-05T04:13:16;64.40;;;31.50;;
5147;SDS011;2592;48.140;7.614;2023-03-05T04:15:42;51.50;;;31.17;;
5147;SDS011;2592;48.140;7.614;2023-03-05T04:18:09;61.93;;;32.73;;
5147;SDS011;2592;48.140;7.614;2023-03-05T04:20:36;53.00;;;30.20;;
5147;SDS011;2592;48.140;7.614;2023-03-05T04:23:03;63.43;;;32.70;;
5147;SDS011;2592;48.140;7.614;2023-03-05T04:25:30;57.77;;;31.57;;
5147;SDS011;2592;48.140;7.614;2023-03-05T04:27:56;55.67;;;32.73;;
5147;SDS011;2592;48.140;7.614;2023-03-05T04:30:22;58.53;;;33.27;;
5147;SDS011;2592;48.140;7.614;2023-03-05T04:32:49;54.40;;;31.43;;
5147;SDS011;2592;48.140;7.614;2023-03-05T04:35:15;58.27;;;30.37;;
5147;SDS011;2592;48.140;7.614;2023-03-05T04:37:42;52.30;;;30.53;;
5147;SDS011;2592;48.140;7.614;2023-03-05T04:40:10;52.23;;;30.00;;
5147;SDS011;2592;48.140;7.614;2023-03-05T04:42:37;56.60;;;30.33;;
5147;SDS011;2592;48.140;7.614;2023-03-05T04:45:03;55.00;;;30.83;;
5147;SDS011;2592;48.140;7.614;2023-03-05T04:47:30;55.13;;;29.93;;
5147;SDS011;2592;48.140;7.614;2023-03-05T04:49:57;56.17;;;32.53;;
5147;SDS011;2592;48.140;7.614;2023-03-05T04:52:23;52.10;;;31.13;;
5147;SDS011;2592;48.140;7.614;2023-03-05T04:54:50;49.10;;;31.20;;
5147;SDS011;2592;48.140;7.614;2023-03-05T04:57:17;55.80;;;31.80;;
5147;SDS011;2592;48.140;7.614;2023-03-05T04:59:44;57.73;;;31.70;;
5147;SDS011;2592;48.140;7.614;2023-03-05T05:02:10;57.63;;;32.60;;
5147;SDS011;2592;48.140;7.614;2023-03-05T05:04:37;55.70;;;32.20;;
5147;SDS011;2592;48.140;7.614;2023-03-05T05:07:04;53.50;;;31.20;;
5147;SDS011;2592;48.140;7.614;2023-03-05T05:09:31;57.33;;;31.63;;
5147;SDS011;2592;48.140;7.614;2023-03-05T05:11:58;55.40;;;30.70;;
5147;SDS011;2592;48.140;7.614;2023-03-05T05:14:25;57.77;;;32.20;;
5147;SDS011;2592;48.140;7.614;2023-03-05T05:16:52;54.90;;;31.93;;
5147;SDS011;2592;48.140;7.614;2023-03-05T05:19:18;50.67;;;29.37;;
5147;SDS011;2592;48.140;7.614;2023-03-05T05:21:45;52.70;;;31.67;;
5147;SDS011;2592;48.140;7.614;2023-03-05T05:24:12;60.97;;;32.90;;
5147;SDS011;2592;48.140;7.614;2023-03-05T05:26:38;53.73;;;32.13;;
5147;SDS011;2592;48.140;7.614;2023-03-05T05:29:04;55.70;;;33.10;;
5147;SDS011;2592;48.140;7.614;2023-03-05T05:31:32;53.60;;;32.47;;
5147;SDS011;2592;48.140;7.614;2023-03-05T05:33:58;52.03;;;31.33;;
5147;SDS011;2592;48.140;7.614;2023-03-05T05:36:25;56.47;;;31.83;;
5147;SDS011;2592;48.140;7.614;2023-03-05T05:38:51;56.43;;;32.90;;
5147;SDS011;2592;48.140;7.614;2023-03-05T05:41:18;56.03;;;32.60;;
5147;SDS011;2592;48.140;7.614;2023-03-05T05:43:44;58.73;;;33.17;;
5147;SDS011;2592;48.140;7.614;2023-03-05T05:46:11;59.07;;;33.57;;
5147;SDS011;2592;48.140;7.614;2023-03-05T05:48:40;56.63;;;33.00;;
5147;SDS011;2592;48.140;7.614;2023-03-05T05:51:06;55.90;;;33.37;;
5147;SDS011;2592;48.140;7.614;2023-03-05T05:53:33;54.77;;;31.87;;
5147;SDS011;2592;48.140;7.614;2023-03-05T05:55:59;56.40;;;33.57;;
5147;SDS011;2592;48.140;7.614;2023-03-05T05:58:26;67.50;;;37.10;;
5147;SDS011;2592;48.140;7.614;2023-03-05T06:00:52;65.23;;;35.87;;
5147;SDS011;2592;48.140;7.614;2023-03-05T06:03:18;54.53;;;32.23;;
5147;SDS011;2592;48.140;7.614;2023-03-05T06:05:46;61.60;;;33.60;;
5147;SDS011;2592;48.140;7.614;2023-03-05T06:08:13;62.47;;;33.87;;
5147;SDS011;2592;48.140;7.614;2023-03-05T06:10:39;57.93;;;34.27;;
5147;SDS011;2592;48.140;7.614;2023-03-05T06:13:05;63.20;;;34.23;;
5147;SDS011;2592;48.140;7.614;2023-03-05T06:15:32;58.43;;;32.73;;
5147;SDS011;2592;48.140;7.614;2023-03-05T06:17:58;56.23;;;31.80;;
5147;SDS011;2592;48.140;7.614;2023-03-05T06:20:25;56.50;;;31.10;;
5147;SDS011;2592;48.140;7.614;2023-03-05T06:22:53;54.93;;;32.23;;
5147;SDS011;2592;48.140;7.614;2023-03-05T06:25:19;65.67;;;32.63;;
5147;SDS011;2592;48.140;7.614;2023-03-05T06:27:45;55.33;;;31.60;;
5147;SDS011;2592;48.140;7.614;2023-03-05T06:30:12;53.87;;;31.50;;
5147;SDS011;2592;48.140;7.614;2023-03-05T06:32:38;63.70;;;33.03;;
5147;SDS011;2592;48.140;7.614;2023-03-05T06:35:05;66.53;;;34.70;;
5147;SDS011;2592;48.140;7.614;2023-03-05T06:37:33;59.10;;;34.40;;
5147;SDS011;2592;48.140;7.614;2023-03-05T06:40:00;52.73;;;31.83;;
5147;SDS011;2592;48.140;7.614;2023-03-05T06:42:27;56.60;;;31.80;;
5147;SDS011;2592;48.140;7.614;2023-03-05T06:44:53;67.63;;;30.97;;
5147;SDS011;2592;48.140;7.614;2023-03-05T06:47:19;55.97;;;31.30;;
5147;SDS011;2592;48.140;7.614;2023-03-05T06:49:46;60.17;;;32.53;;
5147;SDS011;2592;48.140;7.614;2023-03-05T06:52:12;87.53;;;58.43;;
5147;SDS011;2592;48.140;7.614;2023-03-05T06:54:38;62.70;;;37.37;;
5147;SDS011;2592;48.140;7.614;2023-03-05T06:57:07;217.70;;;97.13;;
5147;SDS011;2592;48.140;7.614;2023-03-05T06:59:34;69.33;;;40.07;;
5147;SDS011;2592;48.140;7.614;2023-03-05T07:02:00;66.00;;;37.40;;
5147;SDS011;2592;48.140;7.614;2023-03-05T07:04:27;57.23;;;32.93;;
5147;SDS011;2592;48.140;7.614;2023-03-05T07:06:53;60.13;;;32.70;;
5147;SDS011;2592;48.140;7.614;2023-03-05T07:09:19;56.00;;;32.00;;
5147;SDS011;2592;48.140;7.614;2023-03-05T07:11:46;59.50;;;34.97;;
5147;SDS011;2592;48.140;7.614;2023-03-05T07:14:14;62.63;;;35.80;;
5147;SDS011;2592;48.140;7.614;2023-03-05T07:16:40;58.97;;;35.30;;
5147;SDS011;2592;48.140;7.614;2023-03-05T07:19:06;62.17;;;33.87;;
5147;SDS011;2592;48.140;7.614;2023-03-05T07:21:35;64.20;;;33.27;;
5147;SDS011;2592;48.140;7.614;2023-03-05T07:24:02;58.67;;;30.97;;
5147;SDS011;2592;48.140;7.614;2023-03-05T07:26:29;90.60;;;49.90;;
5147;SDS011;2592;48.140;7.614;2023-03-05T07:28:57;64.20;;;34.37;;
5147;SDS011;2592;48.140;7.614;2023-03-05T07:31:25;64.67;;;33.77;;
5147;SDS011;2592;48.140;7.614;2023-03-05T07:33:55;52.43;;;30.27;;
5147;SDS011;2592;48.140;7.614;2023-03-05T07:36:21;61.93;;;34.27;;
5147;SDS011;2592;48.140;7.614;2023-03-05T07:38:47;60.67;;;34.37;;
5147;SDS011;2592;48.140;7.614;2023-03-05T07:41:15;69.07;;;36.30;;
5147;SDS011;2592;48.140;7.614;2023-03-05T07:43:44;60.70;;;36.57;;
5147;SDS011;2592;48.140;7.614;2023-03-05T07:46:10;60.53;;;33.77;;
5147;SDS011;2592;48.140;7.614;2023-03-05T07:48:38;66.53;;;36.97;;
5147;SDS011;2592;48.140;7.614;2023-03-05T07:51:05;69.80;;;34.50;;
5147;SDS011;2592;48.140;7.614;2023-03-05T07:53:32;70.47;;;35.30;;
5147;SDS011;2592;48.140;7.614;2023-03-05T07:55:58;65.10;;;36.17;;
5147;SDS011;2592;48.140;7.614;2023-03-05T07:58:25;74.47;;;40.40;;
5147;SDS011;2592;48.140;7.614;2023-03-05T08:00:51;117.70;;;57.60;;
5147;SDS011;2592;48.140;7.614;2023-03-05T08:03:17;73.80;;;38.63;;
5147;SDS011;2592;48.140;7.614;2023-03-05T08:05:45;73.80;;;40.87;;
5147;SDS011;2592;48.140;7.614;2023-03-05T08:08:11;86.00;;;50.67;;
5147;SDS011;2592;48.140;7.614;2023-03-05T08:10:38;62.07;;;37.47;;
5147;SDS011;2592;48.140;7.614;2023-03-05T08:13:04;72.93;;;42.63;;
5147;SDS011;2592;48.140;7.614;2023-03-05T08:15:31;68.03;;;37.93;;
5147;SDS011;2592;48.140;7.614;2023-03-05T08:17:57;67.67;;;39.50;;
5147;SDS011;2592;48.140;7.614;2023-03-05T08:20:24;61.50;;;36.67;;
5147;SDS011;2592;48.140;7.614;2023-03-05T08:22:51;78.20;;;42.93;;
5147;SDS011;2592;48.140;7.614;2023-03-05T08:25:18;76.40;;;41.13;;
5147;SDS011;2592;48.140;7.614;2023-03-05T08:27:45;76.33;;;40.47;;
5147;SDS011;2592;48.140;7.614;2023-03-05T08:30:12;76.37;;;41.83;;
5147;SDS011;2592;48.140;7.614;2023-03-05T08:32:39;79.93;;;46.50;;
5147;SDS011;2592;48.140;7.614;2023-03-05T08:35:05;79.83;;;46.03;;
5147;SDS011;2592;48.140;7.614;2023-03-05T08:37:33;72.60;;;41.77;;
5147;SDS011;2592;48.140;7.614;2023-03-05T08:40:01;57.97;;;36.57;;
5147;SDS011;2592;48.140;7.614;2023-03-05T08:42:28;57.47;;;37.13;;
5147;SDS011;2592;48.140;7.614;2023-03-05T08:44:54;59.30;;;37.10;;
5147;SDS011;2592;48.140;7.614;2023-03-05T08:47:21;67.70;;;38.80;;
5147;SDS011;2592;48.140;7.614;2023-03-05T08:49:49;67.47;;;37.97;;
5147;SDS011;2592;48.140;7.614;2023-03-05T08:52:19;65.70;;;38.90;;
5147;SDS011;2592;48.140;7.614;2023-03-05T08:54:46;62.00;;;39.17;;
5147;SDS011;2592;48.140;7.614;2023-03-05T08:57:13;70.13;;;42.00;;
5147;SDS011;2592;48.140;7.614;2023-03-05T08:59:40;65.77;;;38.57;;
5147;SDS011;2592;48.140;7.614;2023-03-05T09:02:06;65.60;;;38.80;;
5147;SDS011;2592;48.140;7.614;2023-03-05T09:04:32;65.60;;;40.23;;
5147;SDS011;2592;48.140;7.614;2023-03-05T09:06:59;66.60;;;39.70;;
5147;SDS011;2592;48.140;7.614;2023-03-05T09:09:25;74.80;;;43.70;;
5147;SDS011;2592;48.140;7.614;2023-03-05T09:11:54;75.03;;;42.60;;
5147;SDS011;2592;48.140;7.614;2023-03-05T09:14:21;74.60;;;42.50;;
5147;SDS011;2592;48.140;7.614;2023-03-05T09:16:48;77.80;;;40.13;;
5147;SDS011;2592;48.140;7.614;2023-03-05T09:19:14;60.10;;;36.17;;
5147;SDS011;2592;48.140;7.614;2023-03-05T09:21:40;61.10;;;35.40;;
5147;SDS011;2592;48.140;7.614;2023-03-05T09:24:07;61.73;;;37.53;;
5147;SDS011;2592;48.140;7.614;2023-03-05T09:26:33;64.93;;;37.70;;
5147;SDS011;2592;48.140;7.614;2023-03-05T09:29:00;64.97;;;39.70;;
5147;SDS011;2592;48.140;7.614;2023-03-05T09:31:27;64.50;;;36.50;;
5147;SDS011;2592;48.140;7.614;2023-03-05T09:33:54;72.00;;;39.60;;
5147;SDS011;2592;48.140;7.614;2023-03-05T09:36:21;80.77;;;43.57;;
5147;SDS011;2592;48.140;7.614;2023-03-05T09:38:48;76.40;;;42.80;;
5147;SDS011;2592;48.140;7.614;2023-03-05T09:41:16;78.43;;;43.00;;
5147;SDS011;2592;48.140;7.614;2023-03-05T09:43:43;63.57;;;36.43;;
5147;SDS011;2592;48.140;7.614;2023-03-05T09:46:16;69.00;;;39.13;;
5147;SDS011;2592;48.140;7.614;2023-03-05T09:48:50;69.67;;;36.40;;
5147;SDS011;2592;48.140;7.614;2023-03-05T09:51:20;72.30;;;37.33;;
5147;SDS011;2592;48.140;7.614;2023-03-05T09:53:48;74.93;;;41.00;;
5147;SDS011;2592;48.140;7.614;2023-03-05T09:56:17;75.50;;;40.73;;
5147;SDS011;2592;48.140;7.614;2023-03-05T09:58:44;69.03;;;34.90;;
5147;SDS011;2592;48.140;7.614;2023-03-05T10:01:14;66.70;;;36.10;;
5147;SDS011;2592;48.140;7.614;2023-03-05T10:03:43;73.13;;;37.43;;
5147;SDS011;2592;48.140;7.614;2023-03-05T10:06:19;62.40;;;34.80;;
5147;SDS011;2592;48.140;7.614;2023-03-05T10:08:48;71.20;;;36.43;;
5147;SDS011;2592;48.140;7.614;2023-03-05T10:11:20;58.53;;;33.10;;
5147;SDS011;2592;48.140;7.614;2023-03-05T10:13:49;55.93;;;32.57;;
5147;SDS011;2592;48.140;7.614;2023-03-05T10:16:27;60.80;;;34.10;;
5147;SDS011;2592;48.140;7.614;2023-03-05T10:18:57;62.20;;;34.60;;
5147;SDS011;2592;48.140;7.614;2023-03-05T10:21:30;59.77;;;34.60;;
5147;SDS011;2592;48.140;7.614;2023-03-05T10:24:06;57.10;;;33.20;;
5147;SDS011;2592;48.140;7.614;2023-03-05T10:26:43;64.20;;;35.40;;
5147;SDS011;2592;48.140;7.614;2023-03-05T10:29:15;66.20;;;33.53;;
5147;SDS011;2592;48.140;7.614;2023-03-05T10:31:50;66.43;;;35.70;;
5147;SDS011;2592;48.140;7.614;2023-03-05T10:34:25;64.20;;;35.20;;
5147;SDS011;2592;48.140;7.614;2023-03-05T10:37:01;62.10;;;33.80;;
5147;SDS011;2592;48.140;7.614;2023-03-05T10:39:46;64.37;;;35.07;;
5147;SDS011;2592;48.140;7.614;2023-03-05T10:42:18;91.10;;;51.37;;
5147;SDS011;2592;48.140;7.614;2023-03-05T10:44:48;74.70;;;40.00;;
5147;SDS011;2592;48.140;7.614;2023-03-05T10:47:21;65.50;;;36.20;;
5147;SDS011;2592;48.140;7.614;2023-03-05T10:49:49;63.77;;;33.30;;
5147;SDS011;2592;48.140;7.614;2023-03-05T10:52:17;60.80;;;35.10;;
5147;SDS011;2592;48.140;7.614;2023-03-05T10:54:46;64.03;;;35.23;;
5147;SDS011;2592;48.140;7.614;2023-03-05T10:57:15;60.33;;;33.10;;
5147;SDS011;2592;48.140;7.614;2023-03-05T10:59:46;65.70;;;36.50;;
5147;SDS011;2592;48.140;7.614;2023-03-05T11:02:13;57.27;;;32.10;;
5147;SDS011;2592;48.140;7.614;2023-03-05T11:04:40;63.00;;;34.67;;
5147;SDS011;2592;48.140;7.614;2023-03-05T11:07:34;62.23;;;35.87;;
5147;SDS011;2592;48.140;7.614;2023-03-05T11:10:03;69.07;;;34.50;;
5147;SDS011;2592;48.140;7.614;2023-03-05T11:12:30;58.90;;;32.67;;
5147;SDS011;2592;48.140;7.614;2023-03-05T11:15:04;64.97;;;35.40;;
5147;SDS011;2592;48.140;7.614;2023-03-05T11:17:32;66.70;;;35.40;;
5147;SDS011;2592;48.140;7.614;2023-03-05T11:22:40;64.93;;;35.17;;
5147;SDS011;2592;48.140;7.614;2023-03-05T11:25:15;57.63;;;31.70;;
5147;SDS011;2592;48.140;7.614;2023-03-05T11:27:44;52.63;;;30.93;;
5147;SDS011;2592;48.140;7.614;2023-03-05T11:30:23;47.50;;;29.20;;
5147;SDS011;2592;48.140;7.614;2023-03-05T11:32:54;52.37;;;29.23;;
5147;SDS011;2592;48.140;7.614;2023-03-05T11:35:32;57.63;;;29.60;;
5147;SDS011;2592;48.140;7.614;2023-03-05T11:37:59;46.03;;;26.37;;
5147;SDS011;2592;48.140;7.614;2023-03-05T11:40:27;46.27;;;25.07;;
5147;SDS011;2592;48.140;7.614;2023-03-05T11:42:55;50.63;;;29.80;;
5147;SDS011;2592;48.140;7.614;2023-03-05T11:45:22;46.40;;;25.73;;
5147;SDS011;2592;48.140;7.614;2023-03-05T11:47:51;49.03;;;27.73;;
5147;SDS011;2592;48.140;7.614;2023-03-05T11:50:19;51.50;;;27.03;;
5147;SDS011;2592;48.140;7.614;2023-03-05T11:52:46;44.90;;;25.63;;
5147;SDS011;2592;48.140;7.614;2023-03-05T11:55:14;47.37;;;29.17;;
5147;SDS011;2592;48.140;7.614;2023-03-05T11:57:42;44.03;;;26.80;;
5147;SDS011;2592;48.140;7.614;2023-03-05T12:00:12;58.80;;;31.47;;
5147;SDS011;2592;48.140;7.614;2023-03-05T12:02:40;47.60;;;27.00;;
5147;SDS011;2592;48.140;7.614;2023-03-05T12:05:06;44.13;;;25.23;;
5147;SDS011;2592;48.140;7.614;2023-03-05T12:07:33;44.70;;;25.10;;
5147;SDS011;2592;48.140;7.614;2023-03-05T12:10:00;41.27;;;23.63;;
5147;SDS011;2592;48.140;7.614;2023-03-05T12:12:30;48.57;;;25.23;;
5147;SDS011;2592;48.140;7.614;2023-03-05T12:15:03;47.53;;;26.27;;
5147;SDS011;2592;48.140;7.614;2023-03-05T12:17:34;48.80;;;27.77;;
5147;SDS011;2592;48.140;7.614;2023-03-05T12:20:03;64.33;;;33.13;;
5147;SDS011;2592;48.140;7.614;2023-03-05T12:22:32;56.80;;;29.20;;
5147;SDS011;2592;48.140;7.614;2023-03-05T12:27:40;48.00;;;25.30;;
5147;SDS011;2592;48.140;7.614;2023-03-05T12:30:10;44.20;;;25.57;;
5147;SDS011;2592;48.140;7.614;2023-03-05T12:32:55;46.57;;;24.00;;
5147;SDS011;2592;48.140;7.614;2023-03-05T12:35:22;46.00;;;25.63;;
5147;SDS011;2592;48.140;7.614;2023-03-05T12:37:56;44.73;;;26.40;;
5147;SDS011;2592;48.140;7.614;2023-03-05T12:40:24;42.13;;;24.90;;
5147;SDS011;2592;48.140;7.614;2023-03-05T12:42:51;44.60;;;24.90;;
5147;SDS011;2592;48.140;7.614;2023-03-05T12:45:26;45.50;;;25.53;;
5147;SDS011;2592;48.140;7.614;2023-03-05T12:50:46;38.50;;;23.07;;
5147;SDS011;2592;48.140;7.614;2023-03-05T12:53:15;40.80;;;24.53;;
5147;SDS011;2592;48.140;7.614;2023-03-05T12:55:45;54.17;;;25.33;;
5147;SDS011;2592;48.140;7.614;2023-03-05T12:58:16;40.43;;;24.30;;
5147;SDS011;2592;48.140;7.614;2023-03-05T13:00:46;44.70;;;25.20;;
5147;SDS011;2592;48.140;7.614;2023-03-05T13:03:15;37.67;;;24.67;;
5147;SDS011;2592;48.140;7.614;2023-03-05T13:05:47;36.93;;;23.97;;
5147;SDS011;2592;48.140;7.614;2023-03-05T13:08:17;40.17;;;24.67;;
5147;SDS011;2592;48.140;7.614;2023-03-05T13:10:49;44.20;;;26.10;;
5147;SDS011;2592;48.140;7.614;2023-03-05T13:13:15;44.60;;;23.93;;
5147;SDS011;2592;48.140;7.614;2023-03-05T13:15:44;42.93;;;25.40;;
5147;SDS011;2592;48.140;7.614;2023-03-05T13:18:13;41.07;;;25.03;;
5147;SDS011;2592;48.140;7.614;2023-03-05T13:20:43;39.87;;;24.03;;
5147;SDS011;2592;48.140;7.614;2023-03-05T13:23:14;39.93;;;25.33;;
5147;SDS011;2592;48.140;7.614;2023-03-05T13:25:40;42.70;;;27.20;;
5147;SDS011;2592;48.140;7.614;2023-03-05T13:28:09;42.17;;;25.43;;
5147;SDS011;2592;48.140;7.614;2023-03-05T13:30:36;39.17;;;21.77;;
5147;SDS011;2592;48.140;7.614;2023-03-05T13:33:03;39.90;;;21.17;;
5147;SDS011;2592;48.140;7.614;2023-03-05T13:35:31;37.10;;;24.80;;
5147;SDS011;2592;48.140;7.614;2023-03-05T13:37:58;40.70;;;22.93;;
5147;SDS011;2592;48.140;7.614;2023-03-05T13:40:25;32.50;;;20.60;;
5147;SDS011;2592;48.140;7.614;2023-03-05T13:42:52;35.60;;;22.13;;
5147;SDS011;2592;48.140;7.614;2023-03-05T13:45:20;40.80;;;23.90;;
5147;SDS011;2592;48.140;7.614;2023-03-05T13:47:50;34.03;;;19.60;;
5147;SDS011;2592;48.140;7.614;2023-03-05T13:50:20;30.67;;;20.83;;
5147;SDS011;2592;48.140;7.614;2023-03-05T13:52:48;33.50;;;20.53;;
5147;SDS011;2592;48.140;7.614;2023-03-05T13:55:15;29.40;;;19.40;;
5147;SDS011;2592;48.140;7.614;2023-03-05T13:57:43;34.90;;;19.97;;
5147;SDS011;2592;48.140;7.614;2023-03-05T14:00:24;31.47;;;20.83;;
5147;SDS011;2592;48.140;7.614;2023-03-05T14:02:51;31.90;;;17.77;;
5147;SDS011;2592;48.140;7.614;2023-03-05T14:05:18;35.23;;;19.20;;
5147;SDS011;2592;48.140;7.614;2023-03-05T14:07:45;28.10;;;18.70;;
5147;SDS011;2592;48.140;7.614;2023-03-05T14:10:27;32.67;;;19.43;;
5147;SDS011;2592;48.140;7.614;2023-03-05T14:12:54;32.67;;;19.00;;
5147;SDS011;2592;48.140;7.614;2023-03-05T14:15:21;31.00;;;19.50;;
5147;SDS011;2592;48.140;7.614;2023-03-05T14:17:48;36.90;;;18.90;;
5147;SDS011;2592;48.140;7.614;2023-03-05T14:20:21;27.77;;;18.70;;
5147;SDS011;2592;48.140;7.614;2023-03-05T14:22:48;32.63;;;20.60;;
5147;SDS011;2592;48.140;7.614;2023-03-05T14:25:25;27.90;;;16.97;;
5147;SDS011;2592;48.140;7.614;2023-03-05T14:27:53;30.43;;;19.30;;
5147;SDS011;2592;48.140;7.614;2023-03-05T14:30:21;31.27;;;18.80;;
5147;SDS011;2592;48.140;7.614;2023-03-05T14:32:47;29.57;;;18.50;;
5147;SDS011;2592;48.140;7.614;2023-03-05T14:35:18;32.70;;;18.37;;
5147;SDS011;2592;48.140;7.614;2023-03-05T14:37:45;32.03;;;19.30;;
5147;SDS011;2592;48.140;7.614;2023-03-05T14:40:17;32.63;;;19.50;;
5147;SDS011;2592;48.140;7.614;2023-03-05T14:42:50;30.33;;;19.23;;
5147;SDS011;2592;48.140;7.614;2023-03-05T14:45:18;30.03;;;16.07;;
5147;SDS011;2592;48.140;7.614;2023-03-05T14:47:45;33.67;;;19.37;;
5147;SDS011;2592;48.140;7.614;2023-03-05T14:50:13;31.73;;;17.70;;
5147;SDS011;2592;48.140;7.614;2023-03-05T14:52:40;53.70;;;31.93;;
5147;SDS011;2592;48.140;7.614;2023-03-05T14:55:09;36.30;;;22.87;;
5147;SDS011;2592;48.140;7.614;2023-03-05T14:57:38;33.33;;;20.67;;
5147;SDS011;2592;48.140;7.614;2023-03-05T15:00:05;27.37;;;18.47;;